createdAt,value
2022-08-03T00:00:38.774Z,72.51
2022-08-03T00:03:07.577Z,72.54
2022-08-03T00:05:37.146Z,73.58
2022-08-03T00:08:05.531Z,73.43
2022-08-03T00:10:35.413Z,74.25
2022-08-03T00:13:04.622Z,74.17
2022-08-03T00:15:32.826Z,74.70
2022-08-03T00:18:01.539Z,75.17
2022-08-03T00:20:30.418Z,75.45
2022-08-03T00:22:58.861Z,75.73
2022-08-03T00:25:27.487Z,75.81
2022-08-03T00:27:56.374Z,75.58
2022-08-03T00:30:30.962Z,75.46
2022-08-03T00:32:59.939Z,75.32
2022-08-03T00:35:49.228Z,75.14
2022-08-03T00:38:19.482Z,75.52
2022-08-03T00:40:47.824Z,74.61
2022-08-03T00:43:16.927Z,75.34
2022-08-03T00:45:45.167Z,75.69
2022-08-03T00:48:19.661Z,75.43
2022-08-03T00:51:07.301Z,75.12
2022-08-03T00:53:37.502Z,75.50
2022-08-03T00:56:06.623Z,75.53
2022-08-03T00:58:39.631Z,75.57
2022-08-03T01:01:08.875Z,75.69
2022-08-03T01:03:37.098Z,76.14
2022-08-03T01:06:38.316Z,76.14
2022-08-03T01:09:28.042Z,77.02
2022-08-03T01:12:28.967Z,76.50
2022-08-03T01:15:12.455Z,76.87
2022-08-03T01:18:03.822Z,77.10
2022-08-03T01:20:35.804Z,78.20
2022-08-03T01:23:22.975Z,78.16
2022-08-03T01:26:16.048Z,78.18
2022-08-03T01:29:18.858Z,77.57
2022-08-03T01:33:00.249Z,77.39
2022-08-03T01:34:57.642Z,77.82
2022-08-03T01:37:35.373Z,78.44
2022-08-03T01:40:09.579Z,77.94
2022-08-03T01:42:40.285Z,79.30
2022-08-03T01:45:12.618Z,80.15
2022-08-03T01:47:42.755Z,80.39
2022-08-03T01:50:13.893Z,80.54
2022-08-03T01:52:46.059Z,80.38
2022-08-03T01:55:19.838Z,79.99
2022-08-03T01:58:06.063Z,79.87
2022-08-03T02:00:39.932Z,80.15
2022-08-03T02:03:10.863Z,80.32
2022-08-03T02:05:41.390Z,80.08
2022-08-03T02:08:13.408Z,80.57
2022-08-03T02:10:43.494Z,80.82
2022-08-03T02:13:13.030Z,81.02
2022-08-03T02:15:42.910Z,80.64
2022-08-03T02:18:12.107Z,80.50
2022-08-03T02:20:43.266Z,80.36
2022-08-03T02:23:11.673Z,80.84
2022-08-03T02:25:46.139Z,81.08
2022-08-03T02:28:20.430Z,81.94
2022-08-03T02:30:55.250Z,82.01
2022-08-03T02:33:32.686Z,81.94
2022-08-03T02:36:02.396Z,81.94
2022-08-03T02:38:37.114Z,82.11
2022-08-03T02:41:09.298Z,81.88
2022-08-03T02:44:06.271Z,81.73
2022-08-03T02:46:34.748Z,81.44
2022-08-03T02:49:40.690Z,81.70
2022-08-03T02:51:55.640Z,81.47
2022-08-03T02:54:26.728Z,81.87
2022-08-03T02:56:58.851Z,81.84
2022-08-03T02:59:30.199Z,81.81
2022-08-03T03:02:02.602Z,81.92
2022-08-03T03:04:33.261Z,82.15
2022-08-03T03:07:04.397Z,82.30
2022-08-03T03:09:40.299Z,82.14
2022-08-03T03:12:12.362Z,82.60
2022-08-03T03:14:41.142Z,82.68
2022-08-03T03:17:11.571Z,82.19
2022-08-03T03:19:41.610Z,81.94
2022-08-03T03:22:11.082Z,81.79
2022-08-03T03:24:41.905Z,81.58
2022-08-03T03:27:10.564Z,81.37
2022-08-03T03:29:45.157Z,80.87
2022-08-03T03:32:14.209Z,80.10
2022-08-03T03:34:44.228Z,79.50
2022-08-03T03:37:12.773Z,79.39
2022-08-03T03:39:40.907Z,79.39
2022-08-03T03:42:09.089Z,79.51
2022-08-03T03:44:37.606Z,79.63
2022-08-03T03:47:05.898Z,80.09
2022-08-03T03:49:34.588Z,80.03
2022-08-03T03:52:03.435Z,80.31
2022-08-03T03:54:42.824Z,80.31
2022-08-03T03:57:12.966Z,80.27
2022-08-03T03:59:44.043Z,80.30
2022-08-03T04:02:12.682Z,80.20
2022-08-03T04:04:59.421Z,79.92
2022-08-03T04:07:46.508Z,79.91
2022-08-03T04:10:43.486Z,79.80
2022-08-03T04:13:15.366Z,79.67
2022-08-03T04:15:48.172Z,79.75
2022-08-03T04:18:19.268Z,79.50
2022-08-03T04:20:50.266Z,79.33
2022-08-03T04:23:22.654Z,79.47
2022-08-03T04:25:53.593Z,79.26
2022-08-03T04:28:30.543Z,79.12
2022-08-03T04:31:03.648Z,78.06
2022-08-03T04:33:34.829Z,77.05
2022-08-03T04:36:07.823Z,76.31
2022-08-03T04:38:56.088Z,75.61
2022-08-03T04:41:27.224Z,74.48
2022-08-03T04:43:58.028Z,73.57
2022-08-03T04:46:33.355Z,72.89
2022-08-03T04:49:02.528Z,73.94
2022-08-03T04:51:32.111Z,71.32
2022-08-03T04:54:00.756Z,70.58
2022-08-03T04:56:28.991Z,70.10
2022-08-03T04:58:57.299Z,69.55
2022-08-03T05:01:25.780Z,68.89
2022-08-03T05:03:54.228Z,68.43
2022-08-03T05:06:22.344Z,68.08
2022-08-03T05:08:53.522Z,68.55
2022-08-03T05:11:22.567Z,68.73
2022-08-03T05:13:50.745Z,68.95
2022-08-03T05:16:19.267Z,69.12
2022-08-03T05:18:47.448Z,69.23
2022-08-03T05:21:17.089Z,69.01
2022-08-03T05:23:45.406Z,68.39
2022-08-03T05:26:13.642Z,68.02
2022-08-03T05:28:50.787Z,68.12
2022-08-03T05:31:20.085Z,67.89
2022-08-03T05:33:49.608Z,68.01
2022-08-03T05:36:17.806Z,67.82
2022-08-03T05:38:46.169Z,67.13
2022-08-03T05:41:21.813Z,66.18
2022-08-03T05:43:55.964Z,65.89
2022-08-03T05:46:24.127Z,65.66
2022-08-03T05:48:52.512Z,64.71
2022-08-03T05:51:20.891Z,63.65
2022-08-03T05:53:49.393Z,63.10
2022-08-03T05:56:17.850Z,61.47
2022-08-03T05:58:47.928Z,60.25
2022-08-03T06:01:17.525Z,59.35
2022-08-03T06:03:46.441Z,59.18
2022-08-03T06:06:16.003Z,58.86
2022-08-03T06:08:45.787Z,57.08
2022-08-03T06:11:13.917Z,55.65
2022-08-03T06:13:42.370Z,55.23
2022-08-03T06:16:10.907Z,55.54
2022-08-03T06:18:40.654Z,54.28
2022-08-03T06:21:14.651Z,53.19
2022-08-03T06:23:52.807Z,53.08
2022-08-03T06:26:22.209Z,52.33
2022-08-03T06:42:44.347Z,49.91
2022-08-03T06:45:14.662Z,50.46
2022-08-03T06:47:43.322Z,50.42
2022-08-03T06:50:16.898Z,48.22
2022-08-03T06:52:46.623Z,44.76
2022-08-03T06:55:14.884Z,43.99
2022-08-03T06:57:43.850Z,43.00
2022-08-03T07:00:12.913Z,43.23
2022-08-03T07:02:41.514Z,42.45
2022-08-03T07:05:10.896Z,43.02
2022-08-03T07:07:40.706Z,42.93
2022-08-03T07:10:12.022Z,43.18
2022-08-03T07:12:56.194Z,42.62
2022-08-03T07:15:53.970Z,41.51
2022-08-03T07:18:14.291Z,41.28
2022-08-03T07:20:42.742Z,39.79
2022-08-03T07:23:11.999Z,38.23
2022-08-03T07:25:47.756Z,38.30
2022-08-03T07:28:16.619Z,38.14
2022-08-03T07:30:45.095Z,38.19
2022-08-03T07:33:13.414Z,38.30
2022-08-03T07:35:41.760Z,36.89
2022-08-03T07:38:09.928Z,36.26
2022-08-03T07:40:40.991Z,36.33
2022-08-03T07:43:12.650Z,36.09
2022-08-03T07:45:40.872Z,36.05
2022-08-03T07:48:12.380Z,35.75
2022-08-03T07:50:41.098Z,34.58
2022-08-03T07:53:09.332Z,34.14
2022-08-03T07:55:37.578Z,33.74
2022-08-03T07:58:12.720Z,33.23
2022-08-03T08:00:41.172Z,33.59
2022-08-03T08:03:09.357Z,33.51
2022-08-03T08:05:37.890Z,32.62
2022-08-03T08:08:07.217Z,32.84
2022-08-03T08:10:35.554Z,32.95
2022-08-03T08:13:04.911Z,32.65
2022-08-03T08:15:33.123Z,32.69
2022-08-03T08:18:02.805Z,32.03
2022-08-03T08:20:36.536Z,31.59
2022-08-03T08:23:19.963Z,31.57
2022-08-03T08:25:57.033Z,32.42
2022-08-03T08:28:31.174Z,32.34
2022-08-03T08:31:02.440Z,31.56
2022-08-03T08:33:54.208Z,32.58
2022-08-03T08:36:19.787Z,32.98
2022-08-03T08:38:48.819Z,33.17
2022-08-03T08:41:17.402Z,32.43
2022-08-03T08:43:45.561Z,32.33
2022-08-03T08:46:22.947Z,32.58
2022-08-03T08:48:53.961Z,32.33
2022-08-03T08:51:50.953Z,32.06
2022-08-03T08:54:18.473Z,31.98
2022-08-03T08:56:48.712Z,31.90
2022-08-03T08:59:18.499Z,31.72
2022-08-03T09:01:46.714Z,30.72
2022-08-03T09:04:15.126Z,31.08
2022-08-03T09:06:58.568Z,31.31
2022-08-03T09:10:10.019Z,31.63
2022-08-03T09:12:41.171Z,31.57
2022-08-03T09:15:36.034Z,31.78
2022-08-03T09:18:05.084Z,31.17
2022-08-03T09:20:34.964Z,31.64
2022-08-03T09:23:59.290Z,31.47
2022-08-03T09:26:01.955Z,31.08
2022-08-03T09:28:56.578Z,30.45
2022-08-03T09:31:37.170Z,29.71
2022-08-03T09:34:16.678Z,29.41
2022-08-03T09:36:47.129Z,29.59
2022-08-03T09:39:40.948Z,28.72
2022-08-03T09:42:14.755Z,29.36
2022-08-03T09:44:49.556Z,28.92
2022-08-03T09:47:36.754Z,29.18
2022-08-03T09:50:13.466Z,28.31
2022-08-03T09:52:49.948Z,27.94
2022-08-03T09:56:30.905Z,27.55
2022-08-03T09:58:10.840Z,27.49
2022-08-03T10:01:23.820Z,28.02
2022-08-03T10:04:02.738Z,29.25
2022-08-03T10:06:33.143Z,30.01
2022-08-03T10:09:27.636Z,30.53
2022-08-03T10:11:55.997Z,30.69
2022-08-03T10:14:26.607Z,30.64
2022-08-03T10:16:54.778Z,29.91
2022-08-03T10:19:23.145Z,28.89
2022-08-03T10:21:58.094Z,28.06
2022-08-03T10:24:29.677Z,27.60
2022-08-03T10:27:01.716Z,27.83
2022-08-03T10:29:32.562Z,27.73
2022-08-03T10:32:04.652Z,27.40
2022-08-03T10:34:42.605Z,26.38
2022-08-03T10:37:16.445Z,25.78
2022-08-03T10:39:54.163Z,25.99
2022-08-03T10:42:26.516Z,25.97
2022-08-03T10:45:07.117Z,25.99
2022-08-03T10:47:36.204Z,25.72
2022-08-03T10:50:05.321Z,25.25
2022-08-03T10:52:39.654Z,24.81
2022-08-03T10:56:01.694Z,24.53
2022-08-03T10:58:56.900Z,24.24
2022-08-03T11:02:01.698Z,23.98
2022-08-03T11:04:30.506Z,23.40
2022-08-03T11:07:18.103Z,23.36
2022-08-03T11:09:52.274Z,23.22
2022-08-03T11:12:30.505Z,22.92
2022-08-03T11:15:03.195Z,22.69
2022-08-03T11:17:33.491Z,22.95
2022-08-03T11:20:01.978Z,22.93
2022-08-03T11:22:51.105Z,23.33
2022-08-03T11:25:55.046Z,23.61
2022-08-03T11:28:30.545Z,23.31
2022-08-03T11:31:49.320Z,23.56
2022-08-03T11:34:18.819Z,23.76
2022-08-03T11:37:23.658Z,23.69
2022-08-03T11:39:55.082Z,24.36
2022-08-03T11:42:23.496Z,23.85
2022-08-03T11:44:56.985Z,23.01
2022-08-03T11:47:27.981Z,23.06
2022-08-03T11:50:00.938Z,22.77
2022-08-03T11:52:36.806Z,21.99
2022-08-03T11:55:10.649Z,22.17
2022-08-03T11:59:01.264Z,22.44
2022-08-03T12:00:30.438Z,22.29
2022-08-03T12:03:12.045Z,22.20
2022-08-03T12:05:42.100Z,22.32
2022-08-03T12:08:29.088Z,21.47
2022-08-03T12:11:00.169Z,20.84
2022-08-03T12:14:05.773Z,21.31
2022-08-03T12:16:29.077Z,22.04
2022-08-03T12:19:02.969Z,22.47
2022-08-03T12:21:31.885Z,23.13
2022-08-03T12:24:03.162Z,23.98
2022-08-03T12:26:58.816Z,23.67
2022-08-03T12:29:28.074Z,23.87
2022-08-03T12:31:56.533Z,23.54
2022-08-03T12:34:24.913Z,22.90
2022-08-03T12:37:00.454Z,23.00
2022-08-03T12:39:31.492Z,23.16
2022-08-03T12:41:59.822Z,23.38
2022-08-03T12:44:35.367Z,23.18
2022-08-03T12:47:06.918Z,22.04
2022-08-03T12:49:56.638Z,22.35
2022-08-03T12:52:29.259Z,22.54
2022-08-03T12:55:01.149Z,22.34
2022-08-03T12:57:42.761Z,22.07
2022-08-03T13:00:21.401Z,22.63
2022-08-03T13:05:57.867Z,24.35
2022-08-03T13:08:26.500Z,24.85
2022-08-03T13:10:54.876Z,24.81
2022-08-03T13:13:43.485Z,24.90
2022-08-03T13:16:15.800Z,25.31
2022-08-03T13:18:48.170Z,25.61
2022-08-03T13:21:16.915Z,25.76
2022-08-03T13:23:46.459Z,26.28
2022-08-03T13:26:14.752Z,26.00
2022-08-03T13:28:43.021Z,25.20
2022-08-03T13:31:11.503Z,24.62
2022-08-03T13:33:40.961Z,24.78
2022-08-03T13:36:09.208Z,24.85
2022-08-03T13:38:37.429Z,25.46
2022-08-03T13:41:06.305Z,26.35
2022-08-03T13:43:34.455Z,26.07
2022-08-03T13:46:02.814Z,24.86
2022-08-03T13:48:31.010Z,24.03
2022-08-03T13:51:21.874Z,23.44
2022-08-03T13:53:52.452Z,23.94
2022-08-03T13:56:21.016Z,23.41
2022-08-03T13:58:49.300Z,22.71
2022-08-03T14:01:29.679Z,22.34
2022-08-03T14:04:06.260Z,22.30
2022-08-03T14:06:49.815Z,21.77
2022-08-03T14:09:18.120Z,21.82
2022-08-03T14:12:06.921Z,22.42
2022-08-03T14:14:34.759Z,23.12
2022-08-03T14:17:02.888Z,23.96
2022-08-03T14:19:32.569Z,25.08
2022-08-03T14:22:21.713Z,25.90
2022-08-03T14:24:49.880Z,25.95
2022-08-03T14:27:19.868Z,25.46
2022-08-03T14:29:48.192Z,24.52
2022-08-03T14:32:16.477Z,23.93
2022-08-03T14:34:44.770Z,24.01
2022-08-03T14:37:13.275Z,24.49
2022-08-03T14:42:30.138Z,24.16
2022-08-03T14:45:03.400Z,24.42
2022-08-03T14:48:23.420Z,24.41
2022-08-03T14:50:38.677Z,24.20
2022-08-03T14:53:10.238Z,23.84
2022-08-03T14:55:50.836Z,23.89
2022-08-03T14:58:22.059Z,24.01
2022-08-03T15:00:52.873Z,24.29
2022-08-03T15:03:25.078Z,24.97
2022-08-03T15:05:55.972Z,24.87
2022-08-03T15:08:26.493Z,25.44
2022-08-03T15:10:55.113Z,25.33
2022-08-03T15:13:23.598Z,25.25
2022-08-03T15:15:52.234Z,26.18
2022-08-03T15:18:20.612Z,26.61
2022-08-03T15:20:50.942Z,26.42
2022-08-03T15:23:19.727Z,26.23
2022-08-03T15:26:28.010Z,26.24
2022-08-03T15:28:37.520Z,26.73
2022-08-03T15:31:07.335Z,26.95
2022-08-03T15:33:35.549Z,26.89
2022-08-03T15:36:05.017Z,27.16
2022-08-03T15:38:33.197Z,27.51
2022-08-03T15:41:01.446Z,27.97
2022-08-03T15:43:29.737Z,28.30
2022-08-03T15:46:27.728Z,28.59
2022-08-03T15:48:47.335Z,28.51
2022-08-03T15:51:15.746Z,28.99
2022-08-03T15:53:44.130Z,29.23
2022-08-03T15:56:16.770Z,29.36
2022-08-03T15:59:10.431Z,29.28
2022-08-03T16:01:35.506Z,29.42
2022-08-03T16:04:05.459Z,29.86
2022-08-03T16:06:35.769Z,30.06
2022-08-03T16:09:24.053Z,29.91
2022-08-03T16:11:55.826Z,30.02
2022-08-03T16:14:34.291Z,30.24
2022-08-03T16:17:06.261Z,30.29
2022-08-03T16:19:34.451Z,29.84
2022-08-03T16:22:04.011Z,29.99
2022-08-03T16:24:32.460Z,30.10
2022-08-03T16:27:01.697Z,29.43
2022-08-03T16:29:30.241Z,28.83
2022-08-03T16:32:09.302Z,28.20
2022-08-03T16:34:39.868Z,28.20
2022-08-03T16:37:35.719Z,28.23
2022-08-03T16:39:58.327Z,28.16
2022-08-03T16:42:27.571Z,28.04
2022-08-03T16:44:55.954Z,28.46
2022-08-03T16:47:24.256Z,28.81
2022-08-03T16:49:54.656Z,28.74
2022-08-03T16:52:25.673Z,28.83
2022-08-03T16:54:55.381Z,29.08
2022-08-03T16:57:56.461Z,29.33
2022-08-03T17:00:34.397Z,29.44
2022-08-03T17:03:18.656Z,29.62
2022-08-03T17:05:52.358Z,30.17
2022-08-03T17:08:26.528Z,30.26
2022-08-03T17:10:57.757Z,30.20
2022-08-03T17:13:38.857Z,30.38
2022-08-03T17:16:12.190Z,30.45
2022-08-03T17:18:56.203Z,30.40
2022-08-03T17:21:30.883Z,30.54
2022-08-03T17:24:03.157Z,30.82
2022-08-03T17:26:35.147Z,31.01
2022-08-03T17:29:12.873Z,31.25
2022-08-03T17:31:48.899Z,31.45
2022-08-03T17:34:19.779Z,31.49
2022-08-03T17:37:05.883Z,31.89
2022-08-03T17:42:31.003Z,31.99
2022-08-03T17:45:03.480Z,32.18
2022-08-03T17:47:43.299Z,32.44
2022-08-03T17:50:25.404Z,32.57
2022-08-03T17:53:24.463Z,33.00
2022-08-03T17:56:04.845Z,32.94
2022-08-03T17:58:58.211Z,33.25
2022-08-03T18:02:03.589Z,33.46
2022-08-03T18:04:46.578Z,33.90
2022-08-03T18:07:40.901Z,34.10
2022-08-03T18:10:15.031Z,34.32
2022-08-03T18:12:52.867Z,34.55
2022-08-03T18:15:34.937Z,34.77
2022-08-03T18:18:10.538Z,35.03
2022-08-03T18:20:42.130Z,35.22
2022-08-03T18:23:20.481Z,35.34
2022-08-03T18:25:58.194Z,35.61
2022-08-03T18:28:29.028Z,35.59
2022-08-03T18:30:58.328Z,35.78
2022-08-03T18:34:17.024Z,35.93
2022-08-03T18:36:22.133Z,36.27
2022-08-03T18:39:02.740Z,36.36
2022-08-03T18:41:34.703Z,36.64
2022-08-03T18:44:37.561Z,36.66
2022-08-03T18:47:51.491Z,36.65
2022-08-03T18:50:38.987Z,36.87
2022-08-03T18:53:19.741Z,37.00
2022-08-03T18:56:02.167Z,37.49
2022-08-03T18:58:56.026Z,37.39
2022-08-03T19:02:00.520Z,37.79
2022-08-03T19:04:53.966Z,37.93
2022-08-03T19:07:27.741Z,38.01
2022-08-03T19:10:15.674Z,37.88
2022-08-03T19:12:56.440Z,37.85
2022-08-03T19:15:36.478Z,38.31
2022-08-03T19:18:12.184Z,38.64
2022-08-03T19:20:46.964Z,38.67
2022-08-03T19:23:17.634Z,38.64
2022-08-03T19:25:46.421Z,39.06
2022-08-03T19:28:16.860Z,38.91
2022-08-03T19:30:53.752Z,39.40
2022-08-03T19:33:29.901Z,39.59
2022-08-03T19:35:59.194Z,39.75
2022-08-03T19:38:29.786Z,39.75
2022-08-03T19:41:02.110Z,39.82
2022-08-03T19:43:49.554Z,40.09
2022-08-03T19:46:30.690Z,40.23
2022-08-03T19:49:15.330Z,40.49
2022-08-03T19:52:01.084Z,40.36
2022-08-03T19:54:53.200Z,40.48
2022-08-03T19:57:27.256Z,40.70
2022-08-03T19:59:57.925Z,41.15
2022-08-03T20:02:29.871Z,40.97
2022-08-03T20:05:05.644Z,41.32
2022-08-03T20:07:48.235Z,41.42
2022-08-03T20:10:18.496Z,41.35
2022-08-03T20:12:49.930Z,41.66
2022-08-03T20:15:31.199Z,41.77
2022-08-03T20:18:01.194Z,41.71
2022-08-03T20:20:36.405Z,41.78
2022-08-03T20:23:16.120Z,42.06
2022-08-03T20:25:58.274Z,42.00
2022-08-03T20:28:50.158Z,42.22
2022-08-03T20:31:23.824Z,42.47
2022-08-03T20:34:00.595Z,42.54
2022-08-03T20:36:29.154Z,42.67
2022-08-03T20:38:59.068Z,43.09
2022-08-03T20:41:28.144Z,43.11
2022-08-03T20:44:01.193Z,43.25
2022-08-03T20:46:41.418Z,42.98
2022-08-03T20:49:19.697Z,43.26
2022-08-03T20:51:53.449Z,43.43
2022-08-03T20:54:31.122Z,43.59
2022-08-03T20:57:04.326Z,43.87
2022-08-03T20:59:47.032Z,44.12
2022-08-03T21:02:19.789Z,44.51
2022-08-03T21:05:09.164Z,44.98
2022-08-03T21:07:45.566Z,45.58
2022-08-03T21:10:37.847Z,45.61
2022-08-03T21:13:23.876Z,45.75
2022-08-03T21:16:02.559Z,46.10
2022-08-03T21:18:46.422Z,46.64
2022-08-03T21:21:16.495Z,46.91
2022-08-03T21:23:49.637Z,47.07
2022-08-03T21:26:19.989Z,47.46
2022-08-03T21:28:50.253Z,47.72
2022-08-03T21:31:24.297Z,47.87
2022-08-03T21:34:00.938Z,48.26
2022-08-03T21:36:35.108Z,49.03
2022-08-03T21:39:05.977Z,49.01
2022-08-03T21:41:35.488Z,48.89
2022-08-03T21:44:06.181Z,49.14
2022-08-03T21:46:41.338Z,49.26
2022-08-03T21:50:07.750Z,49.50
2022-08-03T21:52:05.599Z,49.93
2022-08-03T21:54:41.182Z,50.25
2022-08-03T21:57:25.455Z,50.45
2022-08-03T21:59:57.207Z,50.54
2022-08-03T22:02:32.243Z,50.71
2022-08-03T22:05:04.978Z,50.45
2022-08-03T22:07:34.827Z,50.41
2022-08-03T22:10:05.916Z,50.38
2022-08-03T22:12:35.506Z,50.25
2022-08-03T22:15:07.874Z,50.09
2022-08-03T22:17:55.837Z,49.99
2022-08-03T22:20:25.592Z,50.06
2022-08-03T22:22:57.210Z,50.04
2022-08-03T22:25:31.825Z,50.02
2022-08-03T22:28:03.422Z,49.92
2022-08-03T22:30:33.300Z,50.32
2022-08-03T22:33:03.905Z,50.00
2022-08-03T22:35:46.400Z,50.13
2022-08-03T22:38:18.543Z,50.09
2022-08-03T22:40:51.261Z,50.01
2022-08-03T22:43:24.973Z,50.11
2022-08-03T22:46:09.131Z,50.33
2022-08-03T22:48:41.009Z,50.70
2022-08-03T22:51:10.536Z,50.49
2022-08-03T22:53:40.463Z,50.56
2022-08-03T22:56:09.236Z,51.24
2022-08-03T22:58:37.514Z,51.49
2022-08-03T23:01:11.755Z,51.66
2022-08-03T23:04:00.341Z,52.07
2022-08-03T23:06:45.390Z,52.32
2022-08-03T23:09:14.303Z,52.55
2022-08-03T23:11:46.044Z,52.70
2022-08-03T23:14:18.315Z,52.79
2022-08-03T23:16:48.031Z,52.84
2022-08-03T23:19:25.620Z,52.76
2022-08-03T23:22:03.442Z,53.56
2022-08-03T23:24:36.833Z,53.37
2022-08-03T23:27:06.986Z,53.09
2022-08-03T23:29:37.483Z,53.28
2022-08-03T23:32:06.813Z,52.97
2022-08-03T23:34:57.312Z,53.32
2022-08-03T23:37:26.168Z,53.26
2022-08-03T23:39:57.174Z,53.27
2022-08-03T23:42:26.583Z,53.79
2022-08-03T23:45:05.517Z,53.75
2022-08-03T23:47:46.426Z,54.31
2022-08-03T23:50:17.037Z,54.41
2022-08-03T23:53:17.212Z,54.96
2022-08-03T23:56:13.603Z,54.90
2022-08-03T23:59:13.778Z,55.27
